TAF PASN
AMD PASN 090955Z 0910/1006 01040G50KT 3/4SM -SN BR VV007 TEMPO 0910/0914 1/4SM +SN FZFG VV007 FM091500 34030G40KT 1/4SM +SN BLSN OVC025 FM092200 28017G30KT 4SM BLSN OVC035=
METAR PASN
WC PASN
WS PASN
WV PASN